sensor_id;sensor_type;location;lat;lon;timestamp;temperature;humidity
57434;DHT22;43277;52.672;6.984;2024-02-15T00:00:41;12.20;99.90
57434;DHT22;43277;52.672;6.984;2024-02-15T00:03:10;12.00;99.90
57434;DHT22;43277;52.672;6.984;2024-02-15T00:05:39;12.30;99.90
57434;DHT22;43277;52.672;6.984;2024-02-15T00:08:05;12.20;99.90
57434;DHT22;43277;52.672;6.984;2024-02-15T00:10:31;12.20;99.90
57434;DHT22;43277;52.672;6.984;2024-02-15T00:12:58;12.20;99.90
57434;DHT22;43277;52.672;6.984;2024-02-15T00:15:23;12.20;99.90
57434;DHT22;43277;52.672;6.984;2024-02-15T00:17:49;12.20;99.90
57434;DHT22;43277;52.672;6.984;2024-02-15T00:20:15;12.20;99.90
57434;DHT22;43277;52.672;6.984;2024-02-15T00:22:43;12.20;99.90
57434;DHT22;43277;52.672;6.984;2024-02-15T00:25:09;12.20;99.90
57434;DHT22;43277;52.672;6.984;2024-02-15T00:27:36;12.10;99.90
57434;DHT22;43277;52.672;6.984;2024-02-15T00:30:03;12.20;99.90
57434;DHT22;43277;52.672;6.984;2024-02-15T00:32:28;12.10;99.90
57434;DHT22;43277;52.672;6.984;2024-02-15T00:34:55;12.10;99.90
57434;DHT22;43277;52.672;6.984;2024-02-15T00:37:20;12.10;99.90
57434;DHT22;43277;52.672;6.984;2024-02-15T00:39:46;12.10;99.90
57434;DHT22;43277;52.672;6.984;2024-02-15T00:42:11;12.00;99.90
57434;DHT22;43277;52.672;6.984;2024-02-15T00:44:37;12.00;99.90
57434;DHT22;43277;52.672;6.984;2024-02-15T00:47:03;11.90;99.90
57434;DHT22;43277;52.672;6.984;2024-02-15T00:49:28;12.00;99.90
57434;DHT22;43277;52.672;6.984;2024-02-15T00:51:54;12.00;99.90
57434;DHT22;43277;52.672;6.984;2024-02-15T00:54:19;11.90;99.90
57434;DHT22;43277;52.672;6.984;2024-02-15T00:56:45;11.90;99.90
57434;DHT22;43277;52.672;6.984;2024-02-15T00:59:11;11.90;99.90
57434;DHT22;43277;52.672;6.984;2024-02-15T01:01:36;11.90;99.90
57434;DHT22;43277;52.672;6.984;2024-02-15T01:04:04;12.00;99.90
57434;DHT22;43277;52.672;6.984;2024-02-15T01:06:30;11.90;99.90
57434;DHT22;43277;52.672;6.984;2024-02-15T01:08:55;11.90;99.90
57434;DHT22;43277;52.672;6.984;2024-02-15T01:11:22;12.00;99.90
57434;DHT22;43277;52.672;6.984;2024-02-15T01:13:49;12.00;99.90
57434;DHT22;43277;52.672;6.984;2024-02-15T01:16:16;12.00;99.90
57434;DHT22;43277;52.672;6.984;2024-02-15T01:18:42;11.90;99.90
57434;DHT22;43277;52.672;6.984;2024-02-15T01:21:07;12.00;99.90
57434;DHT22;43277;52.672;6.984;2024-02-15T01:23:34;11.90;99.90
57434;DHT22;43277;52.672;6.984;2024-02-15T01:26:00;11.90;99.90
57434;DHT22;43277;52.672;6.984;2024-02-15T01:28:26;11.90;99.90
57434;DHT22;43277;52.672;6.984;2024-02-15T01:30:52;12.10;99.90
57434;DHT22;43277;52.672;6.984;2024-02-15T01:33:20;12.10;99.90
57434;DHT22;43277;52.672;6.984;2024-02-15T01:35:45;12.20;99.90
57434;DHT22;43277;52.672;6.984;2024-02-15T01:38:11;12.00;99.90
57434;DHT22;43277;52.672;6.984;2024-02-15T01:40:36;12.00;99.90
57434;DHT22;43277;52.672;6.984;2024-02-15T01:43:03;12.00;99.90
57434;DHT22;43277;52.672;6.984;2024-02-15T01:45:29;12.00;99.90
57434;DHT22;43277;52.672;6.984;2024-02-15T01:47:55;12.00;99.90
57434;DHT22;43277;52.672;6.984;2024-02-15T01:50:21;12.10;99.90
57434;DHT22;43277;52.672;6.984;2024-02-15T01:52:49;12.00;99.90
57434;DHT22;43277;52.672;6.984;2024-02-15T01:55:17;12.10;99.90
57434;DHT22;43277;52.672;6.984;2024-02-15T01:57:48;12.00;99.90
57434;DHT22;43277;52.672;6.984;2024-02-15T02:00:18;12.00;99.90
57434;DHT22;43277;52.672;6.984;2024-02-15T02:02:45;12.00;99.90
57434;DHT22;43277;52.672;6.984;2024-02-15T02:05:10;11.90;99.90
57434;DHT22;43277;52.672;6.984;2024-02-15T02:07:37;12.00;99.90
57434;DHT22;43277;52.672;6.984;2024-02-15T02:10:03;12.00;99.90
57434;DHT22;43277;52.672;6.984;2024-02-15T02:12:29;11.90;99.90
57434;DHT22;43277;52.672;6.984;2024-02-15T02:14:55;12.00;99.90
57434;DHT22;43277;52.672;6.984;2024-02-15T02:17:21;12.00;99.90
57434;DHT22;43277;52.672;6.984;2024-02-15T02:19:47;11.90;99.90
57434;DHT22;43277;52.672;6.984;2024-02-15T02:22:16;11.90;99.90
57434;DHT22;43277;52.672;6.984;2024-02-15T02:27:21;11.90;99.90
57434;DHT22;43277;52.672;6.984;2024-02-15T02:29:47;12.00;99.90
57434;DHT22;43277;52.672;6.984;2024-02-15T02:32:13;12.00;99.90
57434;DHT22;43277;52.672;6.984;2024-02-15T02:34:38;12.00;99.90
57434;DHT22;43277;52.672;6.984;2024-02-15T02:37:06;11.90;99.90
57434;DHT22;43277;52.672;6.984;2024-02-15T02:39:34;12.00;99.90
57434;DHT22;43277;52.672;6.984;2024-02-15T02:41:59;12.00;99.90
57434;DHT22;43277;52.672;6.984;2024-02-15T02:44:25;12.00;99.90
57434;DHT22;43277;52.672;6.984;2024-02-15T02:46:51;12.00;99.90
57434;DHT22;43277;52.672;6.984;2024-02-15T02:49:16;12.00;99.90
57434;DHT22;43277;52.672;6.984;2024-02-15T02:51:42;12.00;99.90
57434;DHT22;43277;52.672;6.984;2024-02-15T02:54:09;12.00;99.90
57434;DHT22;43277;52.672;6.984;2024-02-15T02:56:34;12.00;99.90
57434;DHT22;43277;52.672;6.984;2024-02-15T02:59:00;12.00;99.90
57434;DHT22;43277;52.672;6.984;2024-02-15T03:01:25;12.10;99.90
57434;DHT22;43277;52.672;6.984;2024-02-15T03:03:52;12.10;99.90
57434;DHT22;43277;52.672;6.984;2024-02-15T03:06:21;12.00;99.90
57434;DHT22;43277;52.672;6.984;2024-02-15T03:08:47;12.00;99.90
57434;DHT22;43277;52.672;6.984;2024-02-15T03:11:13;12.10;99.90
57434;DHT22;43277;52.672;6.984;2024-02-15T03:13:40;12.10;99.90
57434;DHT22;43277;52.672;6.984;2024-02-15T03:16:05;12.10;99.90
57434;DHT22;43277;52.672;6.984;2024-02-15T03:18:31;12.10;99.90
57434;DHT22;43277;52.672;6.984;2024-02-15T03:20:58;12.10;99.90
57434;DHT22;43277;52.672;6.984;2024-02-15T03:23:24;12.10;99.90
57434;DHT22;43277;52.672;6.984;2024-02-15T03:25:49;12.20;99.90
57434;DHT22;43277;52.672;6.984;2024-02-15T03:28:15;12.20;99.90
57434;DHT22;43277;52.672;6.984;2024-02-15T03:30:42;12.10;99.90
57434;DHT22;43277;52.672;6.984;2024-02-15T03:33:08;12.10;99.90
57434;DHT22;43277;52.672;6.984;2024-02-15T03:35:34;12.20;99.90
57434;DHT22;43277;52.672;6.984;2024-02-15T03:38:00;12.10;99.90
57434;DHT22;43277;52.672;6.984;2024-02-15T03:40:26;12.10;99.90
57434;DHT22;43277;52.672;6.984;2024-02-15T03:42:53;12.10;99.90
57434;DHT22;43277;52.672;6.984;2024-02-15T03:45:18;12.10;99.90
57434;DHT22;43277;52.672;6.984;2024-02-15T03:47:44;12.10;99.90
57434;DHT22;43277;52.672;6.984;2024-02-15T03:50:11;12.10;99.90
57434;DHT22;43277;52.672;6.984;2024-02-15T03:52:38;12.20;99.90
57434;DHT22;43277;52.672;6.984;2024-02-15T03:55:04;12.20;99.90
57434;DHT22;43277;52.672;6.984;2024-02-15T03:57:30;12.20;99.90
57434;DHT22;43277;52.672;6.984;2024-02-15T03:59:56;12.30;99.90
57434;DHT22;43277;52.672;6.984;2024-02-15T04:02:23;12.30;99.90
57434;DHT22;43277;52.672;6.984;2024-02-15T04:04:55;12.20;99.90
57434;DHT22;43277;52.672;6.984;2024-02-15T04:07:22;12.20;99.90
57434;DHT22;43277;52.672;6.984;2024-02-15T04:09:48;12.20;99.90
57434;DHT22;43277;52.672;6.984;2024-02-15T04:12:14;12.30;99.90
57434;DHT22;43277;52.672;6.984;2024-02-15T04:14:40;12.30;99.90
57434;DHT22;43277;52.672;6.984;2024-02-15T04:17:06;12.30;99.90
57434;DHT22;43277;52.672;6.984;2024-02-15T04:19:32;12.40;99.90
57434;DHT22;43277;52.672;6.984;2024-02-15T04:21:58;12.40;99.90
57434;DHT22;43277;52.672;6.984;2024-02-15T04:24:26;12.30;99.90
57434;DHT22;43277;52.672;6.984;2024-02-15T04:26:52;12.30;99.90
57434;DHT22;43277;52.672;6.984;2024-02-15T04:29:17;12.40;99.90
57434;DHT22;43277;52.672;6.984;2024-02-15T04:31:46;12.40;99.90
57434;DHT22;43277;52.672;6.984;2024-02-15T04:34:17;12.40;99.90
57434;DHT22;43277;52.672;6.984;2024-02-15T04:36:47;12.50;99.90
57434;DHT22;43277;52.672;6.984;2024-02-15T04:39:19;12.40;99.90
57434;DHT22;43277;52.672;6.984;2024-02-15T04:41:53;12.40;99.90
57434;DHT22;43277;52.672;6.984;2024-02-15T04:44:20;12.40;99.90
57434;DHT22;43277;52.672;6.984;2024-02-15T04:46:47;12.40;99.90
57434;DHT22;43277;52.672;6.984;2024-02-15T04:49:16;12.40;99.90
57434;DHT22;43277;52.672;6.984;2024-02-15T04:51:41;12.40;99.90
57434;DHT22;43277;52.672;6.984;2024-02-15T04:54:07;12.30;99.90
57434;DHT22;43277;52.672;6.984;2024-02-15T04:56:34;12.40;99.90
57434;DHT22;43277;52.672;6.984;2024-02-15T04:59:01;12.50;99.90
57434;DHT22;43277;52.672;6.984;2024-02-15T05:01:27;12.40;99.90
57434;DHT22;43277;52.672;6.984;2024-02-15T05:03:54;12.50;99.90
57434;DHT22;43277;52.672;6.984;2024-02-15T05:06:21;12.40;99.90
57434;DHT22;43277;52.672;6.984;2024-02-15T05:08:46;12.40;99.90
57434;DHT22;43277;52.672;6.984;2024-02-15T05:11:12;12.50;99.90
57434;DHT22;43277;52.672;6.984;2024-02-15T05:13:43;12.50;99.90
57434;DHT22;43277;52.672;6.984;2024-02-15T05:16:10;12.40;99.90
57434;DHT22;43277;52.672;6.984;2024-02-15T05:18:36;12.40;99.90
57434;DHT22;43277;52.672;6.984;2024-02-15T05:21:04;12.30;99.90
57434;DHT22;43277;52.672;6.984;2024-02-15T05:23:30;12.40;99.90
57434;DHT22;43277;52.672;6.984;2024-02-15T05:25:55;12.40;99.90
57434;DHT22;43277;52.672;6.984;2024-02-15T05:28:22;12.40;99.90
57434;DHT22;43277;52.672;6.984;2024-02-15T05:31:12;12.40;99.90
57434;DHT22;43277;52.672;6.984;2024-02-15T05:33:38;12.40;99.90
57434;DHT22;43277;52.672;6.984;2024-02-15T05:36:16;12.40;99.90
57434;DHT22;43277;52.672;6.984;2024-02-15T05:38:42;12.30;99.90
57434;DHT22;43277;52.672;6.984;2024-02-15T05:41:10;12.30;99.90
57434;DHT22;43277;52.672;6.984;2024-02-15T05:43:37;12.30;99.90
57434;DHT22;43277;52.672;6.984;2024-02-15T05:46:04;12.30;99.90
57434;DHT22;43277;52.672;6.984;2024-02-15T05:48:30;12.30;99.90
57434;DHT22;43277;52.672;6.984;2024-02-15T05:50:56;12.20;99.90
57434;DHT22;43277;52.672;6.984;2024-02-15T05:53:23;12.10;99.90
57434;DHT22;43277;52.672;6.984;2024-02-15T05:55:49;12.20;99.90
57434;DHT22;43277;52.672;6.984;2024-02-15T05:58:16;12.30;99.90
57434;DHT22;43277;52.672;6.984;2024-02-15T06:00:42;12.20;99.90
57434;DHT22;43277;52.672;6.984;2024-02-15T06:03:10;12.10;99.90
57434;DHT22;43277;52.672;6.984;2024-02-15T06:05:37;12.00;99.90
57434;DHT22;43277;52.672;6.984;2024-02-15T06:08:03;12.00;99.90
57434;DHT22;43277;52.672;6.984;2024-02-15T06:10:30;12.00;99.90
57434;DHT22;43277;52.672;6.984;2024-02-15T06:12:56;12.00;99.90
57434;DHT22;43277;52.672;6.984;2024-02-15T06:15:24;12.00;99.90
57434;DHT22;43277;52.672;6.984;2024-02-15T06:17:50;12.00;99.90
57434;DHT22;43277;52.672;6.984;2024-02-15T06:20:16;12.10;99.90
57434;DHT22;43277;52.672;6.984;2024-02-15T06:22:45;12.10;99.90
57434;DHT22;43277;52.672;6.984;2024-02-15T06:25:12;12.00;99.90
57434;DHT22;43277;52.672;6.984;2024-02-15T06:27:38;12.00;99.90
57434;DHT22;43277;52.672;6.984;2024-02-15T06:30:10;12.10;99.90
57434;DHT22;43277;52.672;6.984;2024-02-15T06:32:54;12.10;99.90
57434;DHT22;43277;52.672;6.984;2024-02-15T06:35:38;12.10;99.90
57434;DHT22;43277;52.672;6.984;2024-02-15T06:38:23;12.20;99.90
57434;DHT22;43277;52.672;6.984;2024-02-15T06:41:08;12.20;99.90
57434;DHT22;43277;52.672;6.984;2024-02-15T06:43:37;12.30;99.90
57434;DHT22;43277;52.672;6.984;2024-02-15T06:46:06;12.30;99.90
57434;DHT22;43277;52.672;6.984;2024-02-15T06:48:32;12.20;99.90
57434;DHT22;43277;52.672;6.984;2024-02-15T06:50:57;12.30;99.90
57434;DHT22;43277;52.672;6.984;2024-02-15T06:53:23;12.40;99.90
57434;DHT22;43277;52.672;6.984;2024-02-15T06:55:49;12.30;99.90
57434;DHT22;43277;52.672;6.984;2024-02-15T06:58:16;12.30;99.90
57434;DHT22;43277;52.672;6.984;2024-02-15T07:00:45;12.30;99.90
57434;DHT22;43277;52.672;6.984;2024-02-15T07:03:11;12.30;99.90
57434;DHT22;43277;52.672;6.984;2024-02-15T07:05:37;12.40;99.90
57434;DHT22;43277;52.672;6.984;2024-02-15T07:08:07;12.40;99.90
57434;DHT22;43277;52.672;6.984;2024-02-15T07:10:37;12.40;99.90
57434;DHT22;43277;52.672;6.984;2024-02-15T07:13:04;12.40;99.90
57434;DHT22;43277;52.672;6.984;2024-02-15T07:15:29;12.30;99.90
57434;DHT22;43277;52.672;6.984;2024-02-15T07:17:58;12.30;99.90
57434;DHT22;43277;52.672;6.984;2024-02-15T07:20:24;12.20;99.90
57434;DHT22;43277;52.672;6.984;2024-02-15T07:22:51;12.20;99.90
57434;DHT22;43277;52.672;6.984;2024-02-15T07:25:16;12.20;99.90
57434;DHT22;43277;52.672;6.984;2024-02-15T07:27:43;12.20;99.90
57434;DHT22;43277;52.672;6.984;2024-02-15T07:30:09;12.30;99.90
57434;DHT22;43277;52.672;6.984;2024-02-15T07:32:35;12.30;99.90
57434;DHT22;43277;52.672;6.984;2024-02-15T07:35:01;12.30;99.90
57434;DHT22;43277;52.672;6.984;2024-02-15T07:37:27;12.20;99.90
57434;DHT22;43277;52.672;6.984;2024-02-15T07:39:54;12.10;99.90
57434;DHT22;43277;52.672;6.984;2024-02-15T07:42:20;12.10;99.90
57434;DHT22;43277;52.672;6.984;2024-02-15T07:44:45;12.20;99.90
57434;DHT22;43277;52.672;6.984;2024-02-15T07:47:11;12.10;99.90
57434;DHT22;43277;52.672;6.984;2024-02-15T07:49:37;12.10;99.90
57434;DHT22;43277;52.672;6.984;2024-02-15T07:52:03;12.20;99.90
57434;DHT22;43277;52.672;6.984;2024-02-15T07:54:30;12.20;99.90
57434;DHT22;43277;52.672;6.984;2024-02-15T07:56:56;12.20;99.90
57434;DHT22;43277;52.672;6.984;2024-02-15T07:59:23;12.10;99.90
57434;DHT22;43277;52.672;6.984;2024-02-15T08:01:49;12.10;99.90
57434;DHT22;43277;52.672;6.984;2024-02-15T08:04:18;12.00;99.90
57434;DHT22;43277;52.672;6.984;2024-02-15T08:06:44;12.10;99.90
57434;DHT22;43277;52.672;6.984;2024-02-15T08:09:10;12.10;99.90
57434;DHT22;43277;52.672;6.984;2024-02-15T08:11:42;12.10;99.90
57434;DHT22;43277;52.672;6.984;2024-02-15T08:14:07;12.20;99.90
57434;DHT22;43277;52.672;6.984;2024-02-15T08:16:37;12.30;99.90
57434;DHT22;43277;52.672;6.984;2024-02-15T08:19:06;12.40;99.90
57434;DHT22;43277;52.672;6.984;2024-02-15T08:21:33;12.40;99.90
57434;DHT22;43277;52.672;6.984;2024-02-15T08:24:01;12.30;99.90
57434;DHT22;43277;52.672;6.984;2024-02-15T08:26:32;12.30;99.90
57434;DHT22;43277;52.672;6.984;2024-02-15T08:28:58;12.40;99.90
57434;DHT22;43277;52.672;6.984;2024-02-15T08:31:24;12.40;99.90
57434;DHT22;43277;52.672;6.984;2024-02-15T08:33:49;12.50;99.90
57434;DHT22;43277;52.672;6.984;2024-02-15T08:36:15;12.50;99.90
57434;DHT22;43277;52.672;6.984;2024-02-15T08:38:41;12.50;99.90
57434;DHT22;43277;52.672;6.984;2024-02-15T08:41:07;12.40;99.90
57434;DHT22;43277;52.672;6.984;2024-02-15T08:43:34;12.40;99.90
57434;DHT22;43277;52.672;6.984;2024-02-15T08:46:00;12.50;99.90
57434;DHT22;43277;52.672;6.984;2024-02-15T08:48:26;12.40;99.90
57434;DHT22;43277;52.672;6.984;2024-02-15T08:50:52;12.40;99.90
57434;DHT22;43277;52.672;6.984;2024-02-15T08:53:18;12.50;99.90
57434;DHT22;43277;52.672;6.984;2024-02-15T08:55:45;12.50;99.90
57434;DHT22;43277;52.672;6.984;2024-02-15T08:58:11;12.40;99.90
57434;DHT22;43277;52.672;6.984;2024-02-15T09:00:39;12.40;99.90
57434;DHT22;43277;52.672;6.984;2024-02-15T09:03:10;12.50;99.90
57434;DHT22;43277;52.672;6.984;2024-02-15T09:05:36;12.40;99.90
57434;DHT22;43277;52.672;6.984;2024-02-15T09:08:01;12.60;99.90
57434;DHT22;43277;52.672;6.984;2024-02-15T09:10:30;12.50;99.90
57434;DHT22;43277;52.672;6.984;2024-02-15T09:12:56;12.60;99.90
57434;DHT22;43277;52.672;6.984;2024-02-15T09:15:22;12.50;99.90
57434;DHT22;43277;52.672;6.984;2024-02-15T09:17:48;12.40;99.90
57434;DHT22;43277;52.672;6.984;2024-02-15T09:20:15;12.40;99.90
57434;DHT22;43277;52.672;6.984;2024-02-15T09:22:44;12.40;99.90
57434;DHT22;43277;52.672;6.984;2024-02-15T09:25:11;12.50;99.90
57434;DHT22;43277;52.672;6.984;2024-02-15T09:27:41;12.30;99.90
57434;DHT22;43277;52.672;6.984;2024-02-15T09:30:08;12.40;99.90
57434;DHT22;43277;52.672;6.984;2024-02-15T09:32:38;12.40;99.90
57434;DHT22;43277;52.672;6.984;2024-02-15T09:35:05;12.30;99.90
57434;DHT22;43277;52.672;6.984;2024-02-15T09:37:34;12.30;99.90
57434;DHT22;43277;52.672;6.984;2024-02-15T09:40:00;12.40;99.90
57434;DHT22;43277;52.672;6.984;2024-02-15T09:42:31;12.40;99.90
57434;DHT22;43277;52.672;6.984;2024-02-15T09:45:00;12.50;99.90
57434;DHT22;43277;52.672;6.984;2024-02-15T09:47:36;12.40;99.90
57434;DHT22;43277;52.672;6.984;2024-02-15T09:52:38;12.50;99.90
57434;DHT22;43277;52.672;6.984;2024-02-15T09:55:07;12.40;99.90
57434;DHT22;43277;52.672;6.984;2024-02-15T09:57:45;12.50;99.90
57434;DHT22;43277;52.672;6.984;2024-02-15T10:00:12;12.50;99.90
57434;DHT22;43277;52.672;6.984;2024-02-15T10:02:43;12.50;99.90
57434;DHT22;43277;52.672;6.984;2024-02-15T10:05:10;12.60;99.90
57434;DHT22;43277;52.672;6.984;2024-02-15T10:07:41;12.70;99.90
57434;DHT22;43277;52.672;6.984;2024-02-15T10:10:23;12.60;99.90
57434;DHT22;43277;52.672;6.984;2024-02-15T10:12:51;12.70;99.90
57434;DHT22;43277;52.672;6.984;2024-02-15T10:15:38;12.70;99.90
57434;DHT22;43277;52.672;6.984;2024-02-15T10:18:07;12.80;99.90
57434;DHT22;43277;52.672;6.984;2024-02-15T10:20:34;12.70;99.90
57434;DHT22;43277;52.672;6.984;2024-02-15T10:25:32;12.70;99.90
57434;DHT22;43277;52.672;6.984;2024-02-15T10:28:05;12.80;99.90
57434;DHT22;43277;52.672;6.984;2024-02-15T10:30:35;12.70;99.90
57434;DHT22;43277;52.672;6.984;2024-02-15T10:33:02;12.70;99.90
57434;DHT22;43277;52.672;6.984;2024-02-15T10:35:28;12.80;99.90
57434;DHT22;43277;52.672;6.984;2024-02-15T10:38:11;12.90;99.90
57434;DHT22;43277;52.672;6.984;2024-02-15T10:40:39;13.00;99.90
57434;DHT22;43277;52.672;6.984;2024-02-15T10:43:08;13.00;99.90
57434;DHT22;43277;52.672;6.984;2024-02-15T10:45:36;12.90;99.90
57434;DHT22;43277;52.672;6.984;2024-02-15T10:48:05;12.90;99.90
57434;DHT22;43277;52.672;6.984;2024-02-15T10:50:31;12.90;99.90
57434;DHT22;43277;52.672;6.984;2024-02-15T10:52:58;12.90;99.90
57434;DHT22;43277;52.672;6.984;2024-02-15T10:55:44;13.00;99.90
57434;DHT22;43277;52.672;6.984;2024-02-15T10:58:16;13.00;99.90
57434;DHT22;43277;52.672;6.984;2024-02-15T11:00:46;13.00;99.90
57434;DHT22;43277;52.672;6.984;2024-02-15T11:03:25;12.90;99.90
57434;DHT22;43277;52.672;6.984;2024-02-15T11:05:52;12.80;99.90
57434;DHT22;43277;52.672;6.984;2024-02-15T11:08:20;12.80;99.90
57434;DHT22;43277;52.672;6.984;2024-02-15T11:10:48;12.80;99.90
57434;DHT22;43277;52.672;6.984;2024-02-15T11:13:14;12.90;99.90
57434;DHT22;43277;52.672;6.984;2024-02-15T11:15:47;12.90;99.90
57434;DHT22;43277;52.672;6.984;2024-02-15T11:18:42;12.90;99.90
57434;DHT22;43277;52.672;6.984;2024-02-15T11:21:10;12.90;99.90
57434;DHT22;43277;52.672;6.984;2024-02-15T11:23:35;12.90;99.90
57434;DHT22;43277;52.672;6.984;2024-02-15T11:26:01;13.00;99.90
57434;DHT22;43277;52.672;6.984;2024-02-15T11:30:56;12.90;99.90
57434;DHT22;43277;52.672;6.984;2024-02-15T11:33:34;12.90;99.90
57434;DHT22;43277;52.672;6.984;2024-02-15T11:36:04;12.90;99.90
57434;DHT22;43277;52.672;6.984;2024-02-15T11:38:30;13.00;99.90
57434;DHT22;43277;52.672;6.984;2024-02-15T11:46:18;12.80;99.90
57434;DHT22;43277;52.672;6.984;2024-02-15T11:48:51;12.90;99.90
57434;DHT22;43277;52.672;6.984;2024-02-15T11:51:30;12.90;99.90
57434;DHT22;43277;52.672;6.984;2024-02-15T11:54:01;12.90;99.90
57434;DHT22;43277;52.672;6.984;2024-02-15T11:56:31;12.90;99.90
57434;DHT22;43277;52.672;6.984;2024-02-15T11:59:05;12.90;99.90
57434;DHT22;43277;52.672;6.984;2024-02-15T12:01:33;13.00;99.90
57434;DHT22;43277;52.672;6.984;2024-02-15T12:04:18;13.00;99.90
57434;DHT22;43277;52.672;6.984;2024-02-15T12:07:02;12.90;99.90
57434;DHT22;43277;52.672;6.984;2024-02-15T12:09:46;12.90;99.90
57434;DHT22;43277;52.672;6.984;2024-02-15T12:12:30;12.90;99.90
57434;DHT22;43277;52.672;6.984;2024-02-15T12:15:15;12.80;99.90
57434;DHT22;43277;52.672;6.984;2024-02-15T12:18:14;12.80;99.90
57434;DHT22;43277;52.672;6.984;2024-02-15T12:20:58;12.80;99.90
57434;DHT22;43277;52.672;6.984;2024-02-15T12:23:24;12.80;99.90
57434;DHT22;43277;52.672;6.984;2024-02-15T12:25:53;12.70;99.90
57434;DHT22;43277;52.672;6.984;2024-02-15T12:28:19;12.70;99.90
57434;DHT22;43277;52.672;6.984;2024-02-15T12:30:44;12.70;99.90
57434;DHT22;43277;52.672;6.984;2024-02-15T12:33:12;12.80;99.90
57434;DHT22;43277;52.672;6.984;2024-02-15T12:35:39;12.80;99.90
57434;DHT22;43277;52.672;6.984;2024-02-15T12:38:04;12.80;99.90
57434;DHT22;43277;52.672;6.984;2024-02-15T12:40:36;12.80;99.90
57434;DHT22;43277;52.672;6.984;2024-02-15T12:43:05;12.70;99.90
57434;DHT22;43277;52.672;6.984;2024-02-15T12:45:32;12.80;99.90
57434;DHT22;43277;52.672;6.984;2024-02-15T12:47:58;12.80;99.90
57434;DHT22;43277;52.672;6.984;2024-02-15T12:50:27;12.70;99.90
57434;DHT22;43277;52.672;6.984;2024-02-15T12:52:54;12.70;99.90
57434;DHT22;43277;52.672;6.984;2024-02-15T12:55:22;12.80;99.90
57434;DHT22;43277;52.672;6.984;2024-02-15T12:57:51;12.90;99.90
57434;DHT22;43277;52.672;6.984;2024-02-15T13:00:19;12.90;99.90
57434;DHT22;43277;52.672;6.984;2024-02-15T13:02:50;12.90;99.90
57434;DHT22;43277;52.672;6.984;2024-02-15T13:05:16;12.90;99.90
57434;DHT22;43277;52.672;6.984;2024-02-15T13:07:44;13.00;99.90
57434;DHT22;43277;52.672;6.984;2024-02-15T13:10:10;12.90;99.90
57434;DHT22;43277;52.672;6.984;2024-02-15T13:12:37;12.90;99.90
57434;DHT22;43277;52.672;6.984;2024-02-15T13:15:06;13.00;99.90
57434;DHT22;43277;52.672;6.984;2024-02-15T13:17:37;12.90;99.90
57434;DHT22;43277;52.672;6.984;2024-02-15T13:20:04;13.00;99.90
57434;DHT22;43277;52.672;6.984;2024-02-15T13:22:33;13.00;99.90
57434;DHT22;43277;52.672;6.984;2024-02-15T13:25:00;13.10;99.90
57434;DHT22;43277;52.672;6.984;2024-02-15T13:27:25;13.10;99.90
57434;DHT22;43277;52.672;6.984;2024-02-15T13:29:51;13.10;99.90
57434;DHT22;43277;52.672;6.984;2024-02-15T13:32:18;13.10;99.90
57434;DHT22;43277;52.672;6.984;2024-02-15T13:34:47;13.00;99.90
57434;DHT22;43277;52.672;6.984;2024-02-15T13:37:17;13.00;99.90
57434;DHT22;43277;52.672;6.984;2024-02-15T13:39:43;13.00;99.90
57434;DHT22;43277;52.672;6.984;2024-02-15T13:42:11;13.00;99.90
57434;DHT22;43277;52.672;6.984;2024-02-15T13:44:37;13.10;99.90
57434;DHT22;43277;52.672;6.984;2024-02-15T13:47:02;13.10;99.90
57434;DHT22;43277;52.672;6.984;2024-02-15T13:49:28;13.10;99.90
57434;DHT22;43277;52.672;6.984;2024-02-15T13:52:00;13.10;99.90
57434;DHT22;43277;52.672;6.984;2024-02-15T13:54:28;13.10;99.90
57434;DHT22;43277;52.672;6.984;2024-02-15T13:56:55;13.20;99.90
57434;DHT22;43277;52.672;6.984;2024-02-15T13:59:20;13.10;99.90
57434;DHT22;43277;52.672;6.984;2024-02-15T14:01:46;13.20;99.90
57434;DHT22;43277;52.672;6.984;2024-02-15T14:04:13;13.10;99.90
57434;DHT22;43277;52.672;6.984;2024-02-15T14:06:38;13.10;99.90
57434;DHT22;43277;52.672;6.984;2024-02-15T14:09:06;13.20;99.90
57434;DHT22;43277;52.672;6.984;2024-02-15T14:11:32;13.10;99.90
57434;DHT22;43277;52.672;6.984;2024-02-15T14:13:58;13.20;99.90
57434;DHT22;43277;52.672;6.984;2024-02-15T14:16:24;13.10;99.90
57434;DHT22;43277;52.672;6.984;2024-02-15T14:18:50;13.20;99.90
57434;DHT22;43277;52.672;6.984;2024-02-15T14:21:17;13.30;99.90
57434;DHT22;43277;52.672;6.984;2024-02-15T14:23:44;13.30;99.90
57434;DHT22;43277;52.672;6.984;2024-02-15T14:26:09;13.30;99.90
57434;DHT22;43277;52.672;6.984;2024-02-15T14:28:35;13.30;99.90
57434;DHT22;43277;52.672;6.984;2024-02-15T14:31:01;13.30;99.90
57434;DHT22;43277;52.672;6.984;2024-02-15T14:33:45;13.40;99.90
57434;DHT22;43277;52.672;6.984;2024-02-15T14:36:13;13.40;99.90
57434;DHT22;43277;52.672;6.984;2024-02-15T14:38:39;13.40;99.90
57434;DHT22;43277;52.672;6.984;2024-02-15T14:41:05;13.40;99.90
57434;DHT22;43277;52.672;6.984;2024-02-15T14:43:31;13.50;99.90
57434;DHT22;43277;52.672;6.984;2024-02-15T14:45:59;13.50;99.90
57434;DHT22;43277;52.672;6.984;2024-02-15T14:48:26;13.40;99.90
57434;DHT22;43277;52.672;6.984;2024-02-15T14:50:52;13.40;99.90
57434;DHT22;43277;52.672;6.984;2024-02-15T14:53:18;13.40;99.90
57434;DHT22;43277;52.672;6.984;2024-02-15T14:55:44;13.40;99.90
57434;DHT22;43277;52.672;6.984;2024-02-15T14:58:12;13.30;99.90
57434;DHT22;43277;52.672;6.984;2024-02-15T15:00:39;13.30;99.90
57434;DHT22;43277;52.672;6.984;2024-02-15T15:03:07;13.30;99.90
57434;DHT22;43277;52.672;6.984;2024-02-15T15:05:32;13.30;99.90
57434;DHT22;43277;52.672;6.984;2024-02-15T15:08:16;13.40;99.90
57434;DHT22;43277;52.672;6.984;2024-02-15T15:11:01;13.40;99.90
57434;DHT22;43277;52.672;6.984;2024-02-15T15:13:45;13.40;99.90
57434;DHT22;43277;52.672;6.984;2024-02-15T15:16:11;13.40;99.90
57434;DHT22;43277;52.672;6.984;2024-02-15T15:18:40;13.40;99.90
57434;DHT22;43277;52.672;6.984;2024-02-15T15:21:06;13.40;99.90
57434;DHT22;43277;52.672;6.984;2024-02-15T15:23:31;13.60;99.90
57434;DHT22;43277;52.672;6.984;2024-02-15T15:25:58;13.50;99.90
57434;DHT22;43277;52.672;6.984;2024-02-15T15:28:24;13.40;99.90
57434;DHT22;43277;52.672;6.984;2024-02-15T15:30:50;13.50;99.90
57434;DHT22;43277;52.672;6.984;2024-02-15T15:33:16;13.40;99.90
57434;DHT22;43277;52.672;6.984;2024-02-15T15:35:43;13.40;99.90
57434;DHT22;43277;52.672;6.984;2024-02-15T15:38:08;13.50;99.90
57434;DHT22;43277;52.672;6.984;2024-02-15T15:40:34;13.40;99.90
57434;DHT22;43277;52.672;6.984;2024-02-15T15:43:01;13.40;99.90
57434;DHT22;43277;52.672;6.984;2024-02-15T15:45:28;13.40;99.90
57434;DHT22;43277;52.672;6.984;2024-02-15T15:47:54;13.40;99.90
57434;DHT22;43277;52.672;6.984;2024-02-15T15:50:20;13.30;99.90